createdAt,value
2019-03-28T00:02:21.700Z,2.96
2019-03-28T00:04:53.051Z,2.92
2019-03-28T00:07:24.686Z,2.94
2019-03-28T00:09:56.076Z,2.86
2019-03-28T00:12:27.363Z,2.79
2019-03-28T00:14:58.878Z,2.75
2019-03-28T00:17:30.254Z,2.69
2019-03-28T00:20:01.881Z,2.61
2019-03-28T00:22:43.959Z,2.53
2019-03-28T00:25:15.851Z,2.50
2019-03-28T00:27:47.151Z,2.42
2019-03-28T00:30:20.203Z,2.43
2019-03-28T00:32:52.321Z,2.45
2019-03-28T00:35:23.643Z,2.43
2019-03-28T00:37:54.942Z,2.50
2019-03-28T00:40:26.851Z,2.49
2019-03-28T00:42:58.411Z,2.56
2019-03-28T00:45:30.064Z,2.67
2019-03-28T00:48:01.591Z,2.78
2019-03-28T00:50:33.251Z,2.82
2019-03-28T00:53:04.557Z,2.78
2019-03-28T00:55:36.128Z,2.82
2019-03-28T00:58:07.492Z,2.96
2019-03-28T01:00:38.872Z,2.95
2019-03-28T01:03:11.178Z,2.85
2019-03-28T01:05:42.779Z,2.86
2019-03-28T01:08:14.374Z,2.82
2019-03-28T01:10:45.742Z,2.80
2019-03-28T01:13:17.117Z,2.83
2019-03-28T01:15:49.258Z,2.87
2019-03-28T01:18:21.035Z,2.80
2019-03-28T01:20:52.802Z,2.77
2019-03-28T01:23:24.228Z,2.70
2019-03-28T01:25:55.762Z,2.69
2019-03-28T01:28:27.562Z,2.61
2019-03-28T01:30:59.193Z,2.59
2019-03-28T01:33:30.981Z,2.54
2019-03-28T01:36:02.436Z,2.47
2019-03-28T01:38:34.066Z,2.36
2019-03-28T01:41:05.834Z,2.42
2019-03-28T01:43:37.456Z,2.26
2019-03-28T01:46:09.737Z,2.20
2019-03-28T01:48:41.587Z,2.19
2019-03-28T01:51:13.459Z,2.25
2019-03-28T01:53:45.029Z,2.36
2019-03-28T01:56:16.420Z,2.48
2019-03-28T01:58:48.059Z,2.41
2019-03-28T02:01:19.370Z,2.50
2019-03-28T02:03:51.018Z,2.63
2019-03-28T02:06:22.334Z,2.80
2019-03-28T02:08:53.970Z,2.84
2019-03-28T02:11:25.368Z,2.97
2019-03-28T02:13:57.673Z,2.98
2019-03-28T02:16:28.988Z,3.05
2019-03-28T02:19:00.887Z,3.17
2019-03-28T02:21:32.709Z,3.12
2019-03-28T02:24:04.169Z,3.18
2019-03-28T02:26:35.726Z,3.14
2019-03-28T02:29:07.495Z,3.15
2019-03-28T02:31:39.251Z,3.10
2019-03-28T02:34:10.589Z,3.02
2019-03-28T02:36:41.989Z,3.07
2019-03-28T02:39:13.309Z,3.10
2019-03-28T02:41:44.703Z,3.16
2019-03-28T02:44:16.293Z,3.28
2019-03-28T02:46:47.916Z,3.31
2019-03-28T02:49:19.881Z,3.24
2019-03-28T02:51:51.426Z,3.25
2019-03-28T02:54:22.717Z,3.45
2019-03-28T02:56:54.129Z,3.38
2019-03-28T02:59:25.707Z,3.37
2019-03-28T03:01:57.657Z,3.32
2019-03-28T03:04:29.071Z,3.54
2019-03-28T03:07:00.708Z,3.82
2019-03-28T03:09:32.309Z,3.92
2019-03-28T03:12:03.976Z,3.93
2019-03-28T03:14:37.523Z,3.68
2019-03-28T03:17:09.415Z,3.67
2019-03-28T03:19:40.821Z,3.72
2019-03-28T03:22:12.432Z,3.70
2019-03-28T03:24:44.056Z,3.85
2019-03-28T03:27:15.888Z,3.69
2019-03-28T03:29:47.500Z,3.47
2019-03-28T03:32:18.821Z,3.40
2019-03-28T03:34:50.678Z,3.27
2019-03-28T03:37:22.993Z,3.18
2019-03-28T03:39:54.489Z,3.16
2019-03-28T03:42:26.375Z,3.06
2019-03-28T03:45:01.150Z,3.07
2019-03-28T03:47:33.209Z,3.07
2019-03-28T03:50:05.326Z,3.13
2019-03-28T03:52:36.723Z,3.16
2019-03-28T03:55:08.437Z,3.11
2019-03-28T03:57:40.627Z,3.02
2019-03-28T04:00:13.689Z,2.92
2019-03-28T04:02:45.481Z,2.87
2019-03-28T04:05:16.847Z,2.94
2019-03-28T04:07:48.139Z,2.88
2019-03-28T04:10:19.483Z,2.93
2019-03-28T04:12:51.101Z,2.76
2019-03-28T04:15:22.531Z,2.68
2019-03-28T04:17:53.931Z,2.50
2019-03-28T04:20:25.377Z,2.46
2019-03-28T04:22:57.931Z,2.39
2019-03-28T04:25:29.853Z,2.37
2019-03-28T04:28:01.632Z,2.29
2019-03-28T04:30:33.206Z,2.39
2019-03-28T04:33:04.828Z,2.45
2019-03-28T04:35:36.465Z,2.38
2019-03-28T04:38:08.102Z,2.24
2019-03-28T04:40:39.959Z,2.17
2019-03-28T04:43:12.544Z,2.08
2019-03-28T04:45:44.519Z,2.07
2019-03-28T04:48:15.842Z,1.97
2019-03-28T04:50:48.376Z,1.91
2019-03-28T04:53:20.660Z,1.80
2019-03-28T04:55:52.320Z,1.78
2019-03-28T04:58:23.894Z,1.78
2019-03-28T05:00:55.307Z,1.94
2019-03-28T05:03:26.694Z,2.15
2019-03-28T05:05:58.484Z,2.27
2019-03-28T05:08:30.210Z,2.27
2019-03-28T05:11:01.548Z,2.35
2019-03-28T05:13:34.111Z,2.20
2019-03-28T05:16:05.524Z,2.14
2019-03-28T05:18:37.063Z,2.11
2019-03-28T05:21:08.557Z,2.14
2019-03-28T05:23:40.578Z,1.99
2019-03-28T05:26:12.348Z,1.99
2019-03-28T05:29:03.355Z,1.95
2019-03-28T05:31:53.116Z,1.90
2019-03-28T05:34:42.933Z,1.90
2019-03-28T05:37:32.999Z,1.92
2019-03-28T05:40:04.806Z,1.92
2019-03-28T05:42:36.216Z,1.94
2019-03-28T05:45:08.079Z,1.90
2019-03-28T05:47:39.690Z,2.04
2019-03-28T05:50:11.100Z,2.07
2019-03-28T05:52:42.460Z,2.07
2019-03-28T05:55:13.793Z,2.12
2019-03-28T05:57:45.710Z,2.23
2019-03-28T06:00:17.534Z,2.33
2019-03-28T06:02:48.933Z,2.34
2019-03-28T06:05:20.251Z,2.48
2019-03-28T06:07:51.570Z,2.45
2019-03-28T06:10:22.976Z,2.49
2019-03-28T06:12:54.295Z,2.56
2019-03-28T06:15:28.819Z,2.60
2019-03-28T06:18:00.134Z,2.69
2019-03-28T06:20:31.469Z,2.72
2019-03-28T06:23:03.174Z,2.94
2019-03-28T06:25:34.581Z,3.02
2019-03-28T06:28:06.300Z,3.08
2019-03-28T06:30:37.716Z,3.02
2019-03-28T06:33:09.105Z,3.10
2019-03-28T06:35:40.912Z,3.18
2019-03-28T06:38:12.326Z,3.23
2019-03-28T06:40:43.972Z,3.26
2019-03-28T06:43:15.710Z,3.27
2019-03-28T06:45:47.404Z,3.32
2019-03-28T06:48:19.019Z,3.24
2019-03-28T06:50:50.345Z,3.36
2019-03-28T06:53:21.967Z,3.54
2019-03-28T06:55:53.295Z,3.72
2019-03-28T06:58:24.864Z,3.72
2019-03-28T07:00:56.312Z,3.85
2019-03-28T07:03:27.701Z,3.97
2019-03-28T07:05:59.594Z,4.29
2019-03-28T07:08:30.929Z,4.43
2019-03-28T07:11:02.625Z,4.63
2019-03-28T07:13:35.068Z,4.84
2019-03-28T07:16:06.472Z,5.08
2019-03-28T07:18:37.975Z,5.37
2019-03-28T07:21:09.415Z,5.66
2019-03-28T07:23:40.741Z,5.76
2019-03-28T07:26:12.228Z,6.06
2019-03-28T07:28:45.244Z,6.31
2019-03-28T07:31:16.647Z,6.43
2019-03-28T07:33:47.961Z,6.63
2019-03-28T07:36:20.253Z,6.45
2019-03-28T07:38:51.567Z,6.71
2019-03-28T07:41:24.141Z,6.54
2019-03-28T07:43:55.824Z,6.54
2019-03-28T07:46:27.240Z,6.51
2019-03-28T07:48:58.546Z,6.62
2019-03-28T07:51:30.170Z,6.81
2019-03-28T07:54:01.472Z,6.81
2019-03-28T07:56:33.030Z,7.13
2019-03-28T07:59:04.443Z,7.08
2019-03-28T08:01:36.180Z,7.41
2019-03-28T08:04:07.574Z,7.52
2019-03-28T08:06:49.128Z,7.39
2019-03-28T08:09:12.227Z,7.64
2019-03-28T08:11:44.060Z,7.71
2019-03-28T08:14:15.675Z,7.76
2019-03-28T08:16:47.287Z,7.86
2019-03-28T08:19:18.832Z,8.11
2019-03-28T08:21:50.324Z,8.12
2019-03-28T08:24:21.887Z,8.10
2019-03-28T08:26:53.524Z,8.06
2019-03-28T08:29:25.108Z,8.24
2019-03-28T08:31:57.201Z,8.19
2019-03-28T08:34:31.315Z,8.18
2019-03-28T08:37:02.420Z,8.40
2019-03-28T08:39:34.245Z,8.12
2019-03-28T08:42:06.111Z,8.24
2019-03-28T08:44:38.535Z,8.33
2019-03-28T08:47:10.544Z,8.59
2019-03-28T08:49:42.219Z,8.89
2019-03-28T08:52:13.889Z,8.77
2019-03-28T08:54:45.445Z,8.84
2019-03-28T08:57:17.129Z,9.10
2019-03-28T08:59:48.776Z,9.07
2019-03-28T09:02:20.101Z,9.21
2019-03-28T09:04:51.441Z,9.13
2019-03-28T09:07:22.838Z,9.42
2019-03-28T09:09:54.251Z,9.50
2019-03-28T09:12:26.139Z,9.76
2019-03-28T09:14:57.480Z,9.89
2019-03-28T09:17:28.784Z,10.08
2019-03-28T09:20:00.887Z,10.16
2019-03-28T09:22:32.456Z,10.30
2019-03-28T09:25:04.109Z,10.37
2019-03-28T09:27:35.980Z,10.31
2019-03-28T09:30:08.260Z,10.40
2019-03-28T09:32:39.993Z,10.64
2019-03-28T09:35:13.442Z,10.83
2019-03-28T09:37:45.737Z,10.87
2019-03-28T09:40:17.429Z,11.01
2019-03-28T09:42:49.125Z,11.30
2019-03-28T09:45:20.553Z,11.45
2019-03-28T09:47:51.899Z,11.68
2019-03-28T09:50:23.247Z,11.84
2019-03-28T09:52:55.433Z,11.79
2019-03-28T09:55:26.790Z,11.85
2019-03-28T09:57:58.156Z,12.32
2019-03-28T10:00:32.629Z,12.33
2019-03-28T10:03:03.012Z,12.53
2019-03-28T10:05:37.748Z,12.49
2019-03-28T10:08:07.730Z,12.64
2019-03-28T10:10:39.356Z,12.66
2019-03-28T10:13:11.013Z,12.84
2019-03-28T10:15:43.807Z,12.89
2019-03-28T10:18:15.985Z,13.03
2019-03-28T10:20:47.310Z,12.99
2019-03-28T10:23:19.620Z,13.23
2019-03-28T10:25:51.467Z,13.27
2019-03-28T10:28:23.115Z,13.64
2019-03-28T10:30:54.512Z,13.86
2019-03-28T10:33:28.232Z,13.90
2019-03-28T10:35:59.879Z,13.66
2019-03-28T10:38:31.298Z,13.68
2019-03-28T10:41:02.776Z,13.85
2019-03-28T10:43:34.157Z,13.94
2019-03-28T10:46:05.828Z,14.07
2019-03-28T10:48:37.475Z,14.68
2019-03-28T10:51:08.882Z,14.42
2019-03-28T10:53:40.447Z,14.87
2019-03-28T10:56:21.587Z,14.87
2019-03-28T10:58:45.425Z,14.65
2019-03-28T11:01:31.293Z,14.85
2019-03-28T11:03:49.902Z,14.93
2019-03-28T11:06:21.287Z,15.25
2019-03-28T11:08:52.628Z,14.93
2019-03-28T11:11:24.072Z,14.78
2019-03-28T11:13:55.420Z,14.91
2019-03-28T11:16:27.139Z,14.65
2019-03-28T11:18:59.518Z,14.91
2019-03-28T11:21:34.183Z,14.98
2019-03-28T11:24:04.679Z,15.06
2019-03-28T11:26:36.295Z,15.16
2019-03-28T11:29:08.113Z,15.61
2019-03-28T11:31:46.697Z,15.87
2019-03-28T11:34:14.684Z,16.02
2019-03-28T11:36:46.230Z,15.99
2019-03-28T11:39:17.835Z,15.80
2019-03-28T11:41:49.470Z,15.75
2019-03-28T11:44:21.184Z,15.89
2019-03-28T11:46:52.508Z,15.27
2019-03-28T11:49:23.843Z,15.47
2019-03-28T11:51:55.481Z,15.62
2019-03-28T11:54:27.056Z,15.60
2019-03-28T11:56:58.677Z,15.71
2019-03-28T11:59:30.319Z,15.85
2019-03-28T12:02:18.631Z,15.94
2019-03-28T12:04:34.653Z,15.62
2019-03-28T12:07:06.038Z,15.69
2019-03-28T12:09:38.234Z,16.23
2019-03-28T12:12:09.828Z,16.16
2019-03-28T12:14:41.455Z,16.24
2019-03-28T12:17:12.781Z,16.04
2019-03-28T12:19:44.155Z,16.65
2019-03-28T12:22:15.556Z,16.40
2019-03-28T12:24:46.909Z,16.13
2019-03-28T12:27:18.299Z,16.30
2019-03-28T12:29:49.891Z,16.39
2019-03-28T12:32:21.896Z,16.54
2019-03-28T12:34:53.225Z,16.42
2019-03-28T12:37:24.868Z,16.56
2019-03-28T12:39:59.848Z,16.64
2019-03-28T12:42:29.733Z,16.40
2019-03-28T12:45:02.034Z,17.01
2019-03-28T12:47:42.372Z,16.83
2019-03-28T12:50:06.990Z,16.87
2019-03-28T12:52:38.616Z,16.84
2019-03-28T12:55:10.397Z,16.57
2019-03-28T12:57:42.211Z,16.86
2019-03-28T13:00:13.967Z,16.95
2019-03-28T13:02:45.579Z,16.44
2019-03-28T13:05:17.308Z,16.53
2019-03-28T13:07:48.641Z,16.86
2019-03-28T13:10:20.117Z,16.66
2019-03-28T13:12:51.727Z,17.18
2019-03-28T13:15:23.516Z,17.11
2019-03-28T13:17:54.930Z,17.03
2019-03-28T13:20:26.432Z,16.65
2019-03-28T13:22:58.034Z,16.51
2019-03-28T13:25:29.620Z,16.44
2019-03-28T13:28:00.943Z,16.36
2019-03-28T13:30:32.362Z,16.37
2019-03-28T13:33:04.125Z,16.51
2019-03-28T13:35:35.691Z,16.26
2019-03-28T13:38:06.996Z,16.02
2019-03-28T13:40:38.551Z,16.16
2019-03-28T13:43:09.930Z,16.37
2019-03-28T13:45:41.638Z,16.36
2019-03-28T13:48:13.890Z,16.49
2019-03-28T13:50:45.371Z,16.42
2019-03-28T13:53:17.719Z,16.40
2019-03-28T13:55:52.008Z,16.45
2019-03-28T13:58:23.265Z,16.29
2019-03-28T14:00:56.325Z,16.34
2019-03-28T14:03:29.037Z,16.60
2019-03-28T14:06:01.248Z,16.63
2019-03-28T14:08:32.654Z,16.68
2019-03-28T14:11:03.997Z,16.78
2019-03-28T14:13:35.326Z,16.92
2019-03-28T14:16:06.750Z,16.45
2019-03-28T14:18:38.097Z,16.27
2019-03-28T14:21:09.494Z,16.05
2019-03-28T14:23:41.084Z,15.94
2019-03-28T14:26:12.495Z,15.82
2019-03-28T14:28:44.210Z,15.87
2019-03-28T14:31:15.771Z,15.97
2019-03-28T14:33:47.627Z,16.04
2019-03-28T14:36:19.167Z,16.01
2019-03-28T14:38:50.741Z,15.93
2019-03-28T14:41:22.627Z,15.91
2019-03-28T14:43:55.308Z,15.71
2019-03-28T14:46:27.915Z,15.60
2019-03-28T14:48:59.587Z,15.60
2019-03-28T14:51:30.956Z,15.69
2019-03-28T14:54:02.541Z,15.69
2019-03-28T14:56:34.295Z,15.79
2019-03-28T14:59:05.805Z,15.84
2019-03-28T15:01:37.187Z,15.80
2019-03-28T15:04:08.594Z,15.42
2019-03-28T15:06:39.983Z,15.74
2019-03-28T15:09:11.630Z,15.53
2019-03-28T15:11:43.501Z,15.71
2019-03-28T15:14:14.893Z,15.60
2019-03-28T15:16:46.421Z,15.53
2019-03-28T15:19:17.758Z,15.49
2019-03-28T15:21:49.434Z,15.56
2019-03-28T15:24:20.912Z,15.64
2019-03-28T15:26:53.012Z,15.83
2019-03-28T15:29:24.387Z,15.63
2019-03-28T15:31:56.251Z,15.75
2019-03-28T15:34:27.874Z,15.88
2019-03-28T15:36:59.197Z,15.56
2019-03-28T15:39:31.623Z,15.50
2019-03-28T15:42:03.218Z,15.30
2019-03-28T15:44:34.793Z,15.29
2019-03-28T15:47:06.346Z,15.23
2019-03-28T15:49:37.900Z,15.16
2019-03-28T15:52:09.198Z,15.19
2019-03-28T15:54:41.574Z,15.06
2019-03-28T15:57:13.230Z,14.95
2019-03-28T15:59:45.378Z,14.86
2019-03-28T16:02:17.009Z,14.78
2019-03-28T16:04:48.334Z,14.76
2019-03-28T16:07:20.130Z,14.79
2019-03-28T16:09:52.004Z,14.89
2019-03-28T16:12:23.624Z,14.97
2019-03-28T16:14:55.842Z,15.10
2019-03-28T16:17:27.324Z,14.98
2019-03-28T16:19:58.958Z,15.05
2019-03-28T16:22:30.597Z,15.20
2019-03-28T16:25:02.174Z,14.97
2019-03-28T16:27:33.552Z,15.05
2019-03-28T16:30:05.673Z,14.89
2019-03-28T16:32:37.522Z,15.06
2019-03-28T16:35:09.259Z,14.96
2019-03-28T16:37:40.584Z,15.05
2019-03-28T16:40:12.156Z,14.99
2019-03-28T16:42:43.472Z,14.95
2019-03-28T16:45:15.092Z,14.82
2019-03-28T16:47:46.612Z,14.74
2019-03-28T16:50:18.235Z,14.62
2019-03-28T16:52:49.784Z,14.38
2019-03-28T16:55:26.633Z,14.50
2019-03-28T16:57:54.662Z,14.45
2019-03-28T17:00:35.402Z,14.30
2019-03-28T17:03:07.428Z,14.17
2019-03-28T17:05:38.894Z,14.10
2019-03-28T17:08:10.573Z,13.93
2019-03-28T17:10:55.067Z,13.77
2019-03-28T17:13:26.747Z,13.67
2019-03-28T17:15:58.160Z,13.58
2019-03-28T17:18:30.559Z,13.39
2019-03-28T17:21:02.911Z,13.40
2019-03-28T17:23:35.544Z,13.42
2019-03-28T17:26:06.982Z,13.29
2019-03-28T17:28:38.904Z,13.17
2019-03-28T17:31:10.507Z,12.97
2019-03-28T17:33:41.832Z,12.97
2019-03-28T17:36:13.379Z,12.98
2019-03-28T17:38:44.972Z,12.98
2019-03-28T17:41:16.610Z,12.85
2019-03-28T17:43:48.016Z,12.59
2019-03-28T17:46:19.801Z,12.57
2019-03-28T17:48:51.124Z,12.61
2019-03-28T17:51:22.765Z,12.33
2019-03-28T17:53:56.119Z,12.35
2019-03-28T17:56:27.748Z,12.15
2019-03-28T17:58:59.298Z,12.01
2019-03-28T18:01:30.730Z,11.85
2019-03-28T18:04:02.047Z,11.83
2019-03-28T18:06:35.255Z,11.78
2019-03-28T18:09:08.283Z,11.59
2019-03-28T18:11:39.616Z,11.46
2019-03-28T18:14:10.929Z,11.40
2019-03-28T18:16:42.344Z,11.26
2019-03-28T18:19:13.683Z,11.16
2019-03-28T18:21:45.396Z,11.10
2019-03-28T18:24:16.733Z,10.97
2019-03-28T18:26:49.027Z,10.90
2019-03-28T18:29:21.159Z,10.82
2019-03-28T18:31:52.898Z,10.74
2019-03-28T18:34:24.479Z,10.83
2019-03-28T18:36:55.878Z,10.85
2019-03-28T18:39:28.849Z,10.96
2019-03-28T18:42:00.454Z,11.03
2019-03-28T18:44:31.773Z,11.06
2019-03-28T18:47:03.188Z,11.09
2019-03-28T18:49:34.815Z,11.18
2019-03-28T18:52:07.491Z,11.21
2019-03-28T18:54:39.045Z,11.24
2019-03-28T18:57:10.466Z,11.29
2019-03-28T18:59:42.376Z,11.24
2019-03-28T19:02:14.134Z,11.39
2019-03-28T19:04:45.861Z,11.38
2019-03-28T19:07:17.570Z,11.52
2019-03-28T19:09:49.676Z,11.38
2019-03-28T19:12:21.115Z,11.29
2019-03-28T19:14:53.284Z,11.31
2019-03-28T19:17:24.676Z,11.08
2019-03-28T19:19:59.346Z,10.90
2019-03-28T19:22:29.306Z,10.67
2019-03-28T19:25:00.938Z,10.41
2019-03-28T19:27:34.287Z,10.21
2019-03-28T19:30:06.097Z,10.01
2019-03-28T19:32:38.083Z,9.84
2019-03-28T19:35:09.639Z,9.67
2019-03-28T19:37:42.005Z,9.52
2019-03-28T19:40:13.828Z,9.46
2019-03-28T19:42:45.471Z,9.30
2019-03-28T19:45:26.754Z,9.22
2019-03-28T19:47:58.167Z,9.12
2019-03-28T19:50:29.871Z,9.00
2019-03-28T19:53:01.495Z,8.95
2019-03-28T19:55:33.115Z,8.80
2019-03-28T19:58:05.001Z,8.72
2019-03-28T20:00:36.788Z,8.70
2019-03-28T20:03:08.644Z,8.60
2019-03-28T20:05:47.487Z,8.52
2019-03-28T20:08:15.894Z,8.44
2019-03-28T20:10:46.211Z,8.40
2019-03-28T20:13:17.602Z,8.33
2019-03-28T20:15:49.135Z,8.28
2019-03-28T20:18:21.019Z,8.18
2019-03-28T20:20:55.575Z,8.11
2019-03-28T20:23:25.653Z,8.12
2019-03-28T20:25:58.858Z,8.06
2019-03-28T20:28:30.401Z,7.99
2019-03-28T20:31:01.821Z,7.89
2019-03-28T20:33:33.210Z,7.77
2019-03-28T20:36:30.200Z,7.70
2019-03-28T20:38:38.405Z,7.70
2019-03-28T20:41:09.835Z,7.67
2019-03-28T20:43:41.175Z,7.63
2019-03-28T20:46:12.545Z,7.50
2019-03-28T20:48:44.932Z,7.45
2019-03-28T20:51:16.547Z,7.39
2019-03-28T20:53:48.583Z,7.36
2019-03-28T20:56:20.446Z,7.27
2019-03-28T20:58:51.785Z,7.24
2019-03-28T21:01:23.241Z,7.15
2019-03-28T21:03:54.619Z,7.12
2019-03-28T21:06:26.164Z,7.10
2019-03-28T21:08:57.537Z,7.06
2019-03-28T21:11:29.586Z,6.99
2019-03-28T21:14:03.069Z,6.92
2019-03-28T21:16:34.689Z,6.86
2019-03-28T21:19:06.047Z,6.81
2019-03-28T21:21:37.430Z,6.77
2019-03-28T21:24:09.042Z,6.75
2019-03-28T21:26:41.077Z,6.71
2019-03-28T21:29:12.669Z,6.73
2019-03-28T21:31:49.785Z,6.78
2019-03-28T21:34:17.497Z,6.70
2019-03-28T21:36:50.509Z,6.66
2019-03-28T21:39:21.966Z,6.61
2019-03-28T21:41:54.034Z,6.70
2019-03-28T21:44:25.586Z,6.63
2019-03-28T21:46:57.120Z,6.67
2019-03-28T21:49:28.758Z,6.71
2019-03-28T21:52:00.154Z,6.61
2019-03-28T21:54:31.683Z,6.59
2019-03-28T21:57:03.084Z,6.58
2019-03-28T21:59:34.382Z,6.54
2019-03-28T22:02:06.010Z,6.54
2019-03-28T22:04:37.532Z,6.49
2019-03-28T22:07:09.161Z,6.55
2019-03-28T22:09:40.766Z,6.55
2019-03-28T22:12:12.103Z,6.53
2019-03-28T22:14:43.436Z,6.53
2019-03-28T22:17:15.196Z,6.43
2019-03-28T22:19:47.153Z,6.43
2019-03-28T22:22:18.480Z,6.41
2019-03-28T22:24:50.397Z,6.36
2019-03-28T22:27:22.217Z,6.32
2019-03-28T22:29:53.880Z,6.41
2019-03-28T22:32:25.505Z,6.30
2019-03-28T22:34:57.126Z,6.16
2019-03-28T22:37:28.892Z,6.07
2019-03-28T22:40:00.525Z,6.06
2019-03-28T22:42:31.878Z,6.02
2019-03-28T22:45:03.717Z,5.94
2019-03-28T22:47:35.875Z,6.00
2019-03-28T22:50:08.867Z,5.95
2019-03-28T22:52:40.184Z,5.86
2019-03-28T22:55:12.090Z,5.88
2019-03-28T22:57:43.719Z,5.80
2019-03-28T23:00:15.508Z,5.89
2019-03-28T23:02:48.428Z,5.87
2019-03-28T23:05:20.122Z,5.93
2019-03-28T23:07:51.547Z,5.90
2019-03-28T23:10:23.157Z,5.88
2019-03-28T23:12:54.752Z,5.85
2019-03-28T23:15:26.424Z,5.80
2019-03-28T23:17:57.834Z,5.84
2019-03-28T23:20:29.133Z,5.82
2019-03-28T23:23:00.466Z,5.75
2019-03-28T23:25:31.840Z,5.76
2019-03-28T23:28:03.246Z,5.71
2019-03-28T23:30:34.947Z,5.69
2019-03-28T23:33:06.392Z,5.78
2019-03-28T23:35:37.931Z,5.81
2019-03-28T23:38:09.295Z,5.78
2019-03-28T23:40:40.674Z,5.78
2019-03-28T23:43:12.087Z,5.78
2019-03-28T23:45:43.724Z,5.83
2019-03-28T23:48:15.593Z,5.88
2019-03-28T23:50:46.895Z,5.85
2019-03-28T23:53:18.287Z,5.74
2019-03-28T23:55:49.659Z,5.82
2019-03-28T23:58:21.273Z,5.82
